Time;durP1;ratioP1;P1;durP2;ratioP2;P2;SDS_P1;SDS_P2;PMS_P1;PMS_P2;Temp;Humidity;BMP_temperature;BMP_pressure;BME280_temperature;BME280_humidity;BME280_pressure;Samples;Min_cycle;Max_cycle;Signal;HPM_P1;HPM_P2
2022/05/27 00:01:10;;;;;;;7.20;2.30;;;15.10;99.90;;;;;;5117418;28;20673;-94
2022/05/27 00:03:36;;;;;;;5.40;1.70;;;15.10;99.90;;;;;;5135330;28;20302;-90
2022/05/27 00:06:08;;;;;;;6.87;2.33;;;15.10;99.90;;;;;;5134080;27;20851;-92
2022/05/27 00:08:36;;;;;;;5.43;2.10;;;15.20;99.90;;;;;;5136055;28;20211;-92
2022/05/27 00:11:03;;;;;;;7.40;2.20;;;15.20;99.90;;;;;;5137646;28;20211;-96
2022/05/27 00:13:32;;;;;;;6.20;2.07;;;15.20;99.90;;;;;;5157364;27;20225;-91
2022/05/27 00:16:00;;;;;;;8.03;2.60;;;15.10;99.90;;;;;;5157251;27;20231;-91
2022/05/27 00:18:28;;;;;;;7.43;2.37;;;15.10;99.90;;;;;;5154039;28;20313;-91
2022/05/27 00:20:57;;;;;;;5.13;2.03;;;15.10;99.90;;;;;;5156828;28;20210;-92
2022/05/27 00:23:26;;;;;;;9.50;2.23;;;15.10;99.90;;;;;;5139355;27;20215;-93
2022/05/27 00:25:52;;;;;;;6.90;2.60;;;15.10;99.90;;;;;;5156607;27;20231;-95
2022/05/27 00:28:20;;;;;;;9.80;2.80;;;15.10;99.90;;;;;;5135573;28;20219;-93
2022/05/27 00:30:49;;;;;;;12.50;2.77;;;15.10;99.90;;;;;;5135663;28;20310;-92
2022/05/27 00:33:22;;;;;;;10.70;3.33;;;15.10;99.90;;;;;;5135647;28;20238;-90
2022/05/27 00:35:50;;;;;;;10.77;2.63;;;15.10;99.90;;;;;;5135570;27;20327;-91
2022/05/27 00:38:19;;;;;;;11.87;2.07;;;15.00;99.90;;;;;;5134853;27;20302;-93
2022/05/27 00:40:54;;;;;;;10.60;2.40;;;15.00;99.90;;;;;;5135512;28;20223;-92
2022/05/27 00:43:21;;;;;;;6.90;2.40;;;15.00;99.90;;;;;;5134863;28;20210;-96
2022/05/27 00:45:57;;;;;;;8.70;2.20;;;15.10;99.90;;;;;;5155007;27;20240;-94
2022/05/27 00:48:27;;;;;;;11.10;2.77;;;15.10;99.90;;;;;;5156666;27;20279;-91
2022/05/27 00:50:55;;;;;;;12.83;2.80;;;15.10;99.90;;;;;;5157198;28;20215;-91
2022/05/27 00:53:27;;;;;;;11.27;3.00;;;15.20;99.90;;;;;;5156529;28;20469;-91
2022/05/27 00:56:00;;;;;;;7.17;2.40;;;15.20;99.90;;;;;;5155777;27;20238;-89
2022/05/27 00:58:49;;;;;;;7.13;2.40;;;15.10;99.90;;;;;;5137168;28;20231;-93
2022/05/27 01:01:19;;;;;;;10.57;2.30;;;15.20;99.90;;;;;;5135548;28;20215;-92
2022/05/27 01:03:54;;;;;;;7.53;2.37;;;15.10;99.90;;;;;;5135065;28;20232;-90
2022/05/27 01:06:24;;;;;;;7.07;2.40;;;15.10;99.90;;;;;;5134898;27;20314;-89
2022/05/27 01:08:58;;;;;;;7.63;2.40;;;15.10;99.90;;;;;;5134497;28;20268;-92
2022/05/27 01:11:52;;;;;;;6.90;2.60;;;15.10;99.90;;;;;;5134761;28;20219;-93
2022/05/27 01:14:31;;;;;;;6.10;2.70;;;15.20;99.90;;;;;;5135087;27;20682;-92
2022/05/27 01:17:07;;;;;;;8.23;3.60;;;15.10;99.90;;;;;;5134924;28;20650;-92
2022/05/27 01:23:29;;;;;;;15.70;2.77;;;15.10;99.90;;;;;;5115494;28;20269;-92
2022/05/27 01:26:35;;;;;;;8.70;2.57;;;15.10;99.90;;;;;;5075251;28;20236;-93
2022/05/27 01:29:26;;;;;;;12.93;2.83;;;15.10;99.90;;;;;;5115793;28;20200;-94
2022/05/27 01:32:01;;;;;;;11.17;2.90;;;15.10;99.90;;;;;;5114125;28;20204;-96
2022/05/27 01:34:46;;;;;;;7.03;2.60;;;15.10;99.90;;;;;;5095270;28;20663;-95
2022/05/27 01:37:25;;;;;;;7.63;3.03;;;15.20;99.90;;;;;;5094901;28;20204;-94
2022/05/27 01:40:07;;;;;;;9.47;2.93;;;15.20;99.90;;;;;;5095320;28;20205;-90
2022/05/27 01:42:45;;;;;;;10.98;3.35;;;15.20;99.90;;;;;;5096211;28;20425;-94
2022/05/27 01:45:20;;;;;;;11.93;3.10;;;15.20;99.90;;;;;;5095217;28;20271;-90
2022/05/27 01:47:54;;;;;;;13.07;2.87;;;15.20;99.90;;;;;;5094986;28;20201;-91
2022/05/27 01:50:28;;;;;;;8.90;2.93;;;15.20;99.90;;;;;;5094646;28;20201;-90
2022/05/27 01:53:01;;;;;;;8.40;2.70;;;15.10;99.90;;;;;;5098452;28;20216;-93
2022/05/27 01:55:41;;;;;;;8.03;2.50;;;15.00;99.90;;;;;;5098304;28;20683;-95
2022/05/27 01:58:19;;;;;;;8.67;2.80;;;15.00;99.90;;;;;;5098616;28;20205;-96
2022/05/27 02:00:50;;;;;;;9.17;3.00;;;15.10;99.90;;;;;;5098912;28;20211;-94
2022/05/27 02:03:26;;;;;;;9.13;2.50;;;15.10;99.90;;;;;;5098526;28;20294;-92
2022/05/27 02:05:58;;;;;;;12.13;2.90;;;15.00;99.90;;;;;;5098232;28;20236;-95
2022/05/27 02:08:33;;;;;;;9.73;3.20;;;15.00;99.90;;;;;;5097450;28;20434;-90
2022/05/27 02:11:08;;;;;;;10.70;3.53;;;15.30;99.90;;;;;;5099028;28;20204;-92
2022/05/27 02:13:41;;;;;;;12.87;2.70;;;15.20;99.90;;;;;;5097985;28;20212;-90
2022/05/27 02:16:13;;;;;;;12.67;3.43;;;15.20;99.90;;;;;;5097645;28;20759;-91
2022/05/27 02:18:46;;;;;;;12.80;3.10;;;15.10;99.90;;;;;;5097956;28;20218;-93
2022/05/27 02:21:21;;;;;;;8.23;2.40;;;15.10;99.90;;;;;;5097842;28;20224;-94
2022/05/27 02:23:59;;;;;;;9.17;3.10;;;15.10;99.90;;;;;;5098488;28;20201;-90
2022/05/27 02:26:31;;;;;;;8.00;3.40;;;15.00;99.90;;;;;;5097131;28;20286;-89
2022/05/27 02:29:01;;;;;;;9.43;2.90;;;15.00;99.90;;;;;;5097948;28;20628;-91
2022/05/27 02:31:32;;;;;;;8.90;3.00;;;14.90;99.90;;;;;;5097830;28;20227;-94
2022/05/27 02:37:08;;;;;;;12.10;3.60;;;15.10;99.90;;;;;;5064035;28;20197;-91
2022/05/27 02:39:38;;;;;;;10.33;3.80;;;15.00;99.90;;;;;;5097485;28;20736;-91
2022/05/27 02:42:22;;;;;;;13.90;3.10;;;15.00;99.90;;;;;;5097634;28;20197;-94
2022/05/27 02:45:03;;;;;;;15.90;3.57;;;15.00;99.90;;;;;;5096786;28;20602;-90
2022/05/27 02:47:39;;;;;;;11.93;3.50;;;15.00;99.90;;;;;;5097229;28;20205;-91
2022/05/27 02:50:16;;;;;;;12.87;3.80;;;15.10;99.90;;;;;;5097527;28;20209;-91
2022/05/27 02:52:56;;;;;;;17.67;4.73;;;15.10;99.90;;;;;;5097306;28;20223;-88
2022/05/27 02:55:36;;;;;;;15.00;3.70;;;15.10;99.90;;;;;;5097314;28;20253;-89
2022/05/27 02:58:09;;;;;;;15.33;3.70;;;15.10;99.90;;;;;;5096853;28;20743;-90
2022/05/27 03:00:40;;;;;;;12.10;3.40;;;15.10;99.90;;;;;;5097574;28;20216;-91
2022/05/27 03:03:09;;;;;;;12.30;4.20;;;15.10;99.90;;;;;;5078837;28;20209;-92
2022/05/27 03:05:53;;;;;;;13.47;3.83;;;15.00;99.90;;;;;;5096650;28;20229;-93
2022/05/27 03:08:33;;;;;;;10.80;3.27;;;15.00;99.90;;;;;;5096899;28;20201;-91
2022/05/27 03:11:10;;;;;;;11.80;3.57;;;15.20;99.90;;;;;;5096804;28;20197;-92
2022/05/27 03:13:55;;;;;;;9.70;3.20;;;15.10;99.90;;;;;;5079105;28;20236;-89
2022/05/27 03:16:39;;;;;;;11.77;3.60;;;15.00;99.90;;;;;;5096663;28;20589;-92
2022/05/27 03:19:30;;;;;;;14.53;3.50;;;15.00;99.90;;;;;;5078809;28;20672;-89
2022/05/27 03:22:12;;;;;;;12.57;3.30;;;15.00;99.90;;;;;;5097087;28;20215;-89
2022/05/27 03:25:04;;;;;;;11.67;3.43;;;15.00;99.90;;;;;;5131692;22;20237;-91
2022/05/27 03:27:39;;;;;;;12.20;4.13;;;15.00;99.90;;;;;;5075527;28;20638;-95
2022/05/27 03:30:17;;;;;;;13.43;4.40;;;15.00;99.90;;;;;;5080771;28;20264;-91
2022/05/27 03:32:55;;;;;;;14.80;4.03;;;15.00;99.90;;;;;;5078519;28;20269;-96
2022/05/27 03:35:36;;;;;;;14.13;3.83;;;15.00;99.90;;;;;;5077696;28;20688;-92
2022/05/27 03:38:49;;;;;;;14.53;3.73;;;15.00;99.90;;;;;;5079894;28;20281;-90
2022/05/27 03:41:26;;;;;;;14.30;4.67;;;15.00;99.90;;;;;;5076223;28;20288;-91
2022/05/27 03:44:35;;;;;;;14.20;4.40;;;15.00;99.90;;;;;;5079969;28;20217;-91
2022/05/27 03:47:41;;;;;;;15.63;4.33;;;15.00;99.90;;;;;;5081104;28;20213;-96
2022/05/27 03:50:32;;;;;;;15.90;4.20;;;15.00;99.90;;;;;;5074958;28;20201;-96
2022/05/27 03:53:09;;;;;;;20.40;4.70;;;14.90;99.90;;;;;;5077503;28;20664;-94
2022/05/27 03:55:44;;;;;;;17.57;4.97;;;15.00;99.90;;;;;;5076038;28;20321;-92
2022/05/27 03:59:03;;;;;;;15.27;4.23;;;15.00;99.90;;;;;;5075633;28;20297;-92
2022/05/27 04:02:12;;;;;;;17.73;4.97;;;15.00;99.90;;;;;;5074920;28;20236;-93
2022/05/27 04:04:46;;;;;;;15.27;5.17;;;14.90;99.90;;;;;;5073396;28;20253;-93
2022/05/27 04:07:16;;;;;;;16.43;4.53;;;14.80;99.90;;;;;;5075570;28;20288;-91
2022/05/27 04:12:55;;;;;;;14.17;5.90;;;14.60;99.90;;;;;;5075931;28;20246;-91
2022/05/27 04:15:26;;;;;;;20.87;6.43;;;14.50;99.90;;;;;;5074762;28;20233;-94
2022/05/27 04:18:06;;;;;;;16.37;6.23;;;14.40;99.90;;;;;;5057575;28;20287;-92
2022/05/27 04:20:40;;;;;;;19.50;6.70;;;14.40;99.90;;;;;;5075261;28;20202;-91
2022/05/27 04:23:08;;;;;;;19.37;7.33;;;14.40;99.90;;;;;;5075383;28;20295;-92
2022/05/27 04:25:38;;;;;;;22.70;7.70;;;14.30;99.90;;;;;;5074247;28;20240;-88
2022/05/27 04:28:11;;;;;;;22.60;7.37;;;14.30;99.90;;;;;;5075098;28;20201;-90
2022/05/27 04:31:09;;;;;;;18.53;7.07;;;14.30;99.90;;;;;;5074800;28;20252;-93
2022/05/27 04:33:48;;;;;;;21.93;7.80;;;14.20;99.90;;;;;;5075253;28;20204;-91
2022/05/27 04:36:42;;;;;;;21.50;8.17;;;14.00;99.90;;;;;;5075002;28;20275;-91
2022/05/27 04:39:21;;;;;;;20.90;8.70;;;14.10;99.90;;;;;;5074516;28;20525;-91
2022/05/27 04:41:54;;;;;;;22.83;7.57;;;14.10;99.90;;;;;;5075123;28;20206;-91
2022/05/27 04:44:35;;;;;;;21.70;8.80;;;14.10;99.90;;;;;;5074777;28;20208;-92
2022/05/27 04:47:13;;;;;;;23.00;8.57;;;14.10;99.90;;;;;;5088736;28;20240;-91
2022/05/27 04:49:53;;;;;;;23.77;8.50;;;14.10;99.90;;;;;;5074123;28;20694;-89
2022/05/27 04:52:25;;;;;;;22.43;9.00;;;14.10;99.90;;;;;;5074825;28;20208;-91
2022/05/27 04:55:03;;;;;;;23.67;9.77;;;14.10;99.90;;;;;;5074711;28;20971;-92
2022/05/27 04:57:39;;;;;;;23.50;9.20;;;14.20;99.90;;;;;;5074567;28;20208;-90
2022/05/27 05:09:58;;;;;;;25.40;11.33;;;14.10;99.90;;;;;;4957759;29;20201;-96
2022/05/27 05:12:31;;;;;;;20.83;11.33;;;14.10;99.90;;;;;;4955346;29;20645;-92
2022/05/27 05:15:04;;;;;;;29.00;10.93;;;14.20;99.90;;;;;;4956918;29;20273;-91
2022/05/27 05:17:34;;;;;;;29.93;11.63;;;14.20;99.90;;;;;;4955591;29;20221;-92
2022/05/27 05:20:14;;;;;;;25.53;12.60;;;14.20;99.90;;;;;;4955748;29;20256;-92
2022/05/27 05:22:44;;;;;;;29.87;12.27;;;14.30;99.90;;;;;;4940079;29;20207;-96
2022/05/27 05:25:27;;;;;;;27.47;13.93;;;14.30;99.90;;;;;;4954486;28;20265;-92
2022/05/27 05:27:57;;;;;;;24.20;14.40;;;14.30;99.90;;;;;;4962097;29;20288;-94
2022/05/27 05:30:29;;;;;;;25.93;14.87;;;14.20;99.90;;;;;;4978844;28;20611;-90
2022/05/27 05:32:56;;;;;;;29.83;15.70;;;14.20;99.90;;;;;;4962364;29;20221;-93
2022/05/27 05:35:38;;;;;;;31.57;16.83;;;14.20;99.90;;;;;;5050040;28;20323;-93
2022/05/27 05:38:33;;;;;;;34.53;18.77;;;14.30;99.90;;;;;;5043089;28;20669;-93
2022/05/27 05:41:05;;;;;;;36.97;18.73;;;14.20;99.90;;;;;;5057287;28;20218;-88
2022/05/27 05:43:41;;;;;;;30.20;18.47;;;14.20;99.90;;;;;;5057550;28;20221;-93
2022/05/27 05:46:16;;;;;;;34.57;19.63;;;14.30;99.90;;;;;;5058022;28;20598;-93
2022/05/27 05:48:55;;;;;;;33.60;19.60;;;14.40;99.90;;;;;;5065446;28;20270;-88
2022/05/27 05:51:25;;;;;;;37.37;18.93;;;14.40;99.90;;;;;;5068934;28;20194;-93
2022/05/27 05:53:56;;;;;;;33.30;20.00;;;14.50;99.90;;;;;;5051755;28;20206;-91
2022/05/27 05:56:48;;;;;;;35.13;18.47;;;14.60;99.90;;;;;;5069604;28;20228;-93
2022/05/27 05:59:17;;;;;;;31.03;19.23;;;14.60;99.90;;;;;;5070428;28;20237;-92
2022/05/27 06:02:02;;;;;;;33.77;18.53;;;14.60;99.90;;;;;;5078285;28;20213;-92
2022/05/27 06:04:40;;;;;;;30.53;17.30;;;14.80;99.90;;;;;;5078129;28;20285;-91
2022/05/27 06:07:12;;;;;;;36.07;16.87;;;14.90;99.90;;;;;;5077648;28;20229;-95
2022/05/27 06:09:43;;;;;;;31.83;17.23;;;14.90;99.90;;;;;;5078181;28;20218;-92
2022/05/27 06:12:29;;;;;;;31.10;16.47;;;15.00;99.90;;;;;;5090728;28;20208;-90
2022/05/27 06:15:00;;;;;;;25.73;15.53;;;15.20;99.90;;;;;;5078267;28;20598;-91
2022/05/27 06:17:44;;;;;;;26.90;14.67;;;15.10;99.90;;;;;;5077859;28;20233;-92
2022/05/27 06:20:27;;;;;;;27.30;13.17;;;15.10;99.90;;;;;;5077314;28;20217;-93
2022/05/27 06:23:14;;;;;;;19.03;11.07;;;15.10;99.90;;;;;;5077138;28;20279;-93
2022/05/27 06:25:56;;;;;;;25.20;11.87;;;15.10;99.90;;;;;;5077296;28;20238;-92
2022/05/27 06:34:36;;;;;;;20.23;9.53;;;15.30;99.90;;;;;;5077339;28;20279;-92
2022/05/27 06:37:23;;;;;;;18.87;9.23;;;15.40;99.90;;;;;;5077346;28;20614;-92
2022/05/27 06:39:59;;;;;;;17.80;8.40;;;15.50;99.90;;;;;;5077454;28;20224;-92
2022/05/27 06:42:39;;;;;;;15.43;8.40;;;15.60;99.90;;;;;;5077837;28;20213;-92
2022/05/27 06:45:29;;;;;;;19.57;7.47;;;15.70;99.90;;;;;;5073913;28;20599;-93
2022/05/27 06:47:59;;;;;;;19.03;6.43;;;15.70;99.90;;;;;;5065784;28;20210;-93
2022/05/27 06:50:44;;;;;;;16.80;6.93;;;15.80;99.90;;;;;;5059365;28;20247;-92
2022/05/27 06:53:39;;;;;;;19.23;5.27;;;15.90;99.90;;;;;;5056866;28;20212;-94
2022/05/27 06:56:10;;;;;;;11.10;5.00;;;15.80;99.90;;;;;;5057753;28;20257;-96
2022/05/27 06:58:44;;;;;;;9.53;3.90;;;15.80;99.90;;;;;;5057461;28;20241;-91
2022/05/27 07:01:21;;;;;;;10.20;4.18;;;15.90;99.90;;;;;;5072044;28;20470;-93
2022/05/27 07:03:51;;;;;;;8.10;3.70;;;15.70;99.90;;;;;;5076884;28;20202;-92
2022/05/27 07:06:19;;;;;;;10.47;4.03;;;15.80;99.90;;;;;;5079896;28;20302;-91
2022/05/27 07:08:50;;;;;;;9.77;3.50;;;15.90;99.90;;;;;;5078884;28;20214;-94
2022/05/27 07:11:20;;;;;;;8.50;3.50;;;15.90;99.90;;;;;;5078233;28;20292;-93
2022/05/27 07:13:49;;;;;;;5.40;2.70;;;16.00;99.90;;;;;;5073571;28;20253;-92
2022/05/27 07:16:16;;;;;;;8.77;2.60;;;16.00;99.90;;;;;;5061525;28;20218;-92
2022/05/27 07:22:03;;;;;;;9.10;3.30;;;16.20;99.90;;;;;;5074342;28;20209;-93
2022/05/27 07:24:33;;;;;;;13.03;3.40;;;16.30;99.90;;;;;;5076684;28;20230;-92
2022/05/27 07:27:00;;;;;;;6.30;2.93;;;16.50;99.90;;;;;;5072860;28;20287;-92
2022/05/27 07:29:28;;;;;;;6.50;3.17;;;16.70;99.90;;;;;;5061922;28;20292;-92
2022/05/27 07:31:56;;;;;;;5.03;2.47;;;16.70;99.90;;;;;;5069731;28;20200;-92
2022/05/27 07:34:24;;;;;;;3.50;2.10;;;16.70;99.90;;;;;;5062962;28;20659;-92
2022/05/27 07:36:54;;;;;;;3.67;1.80;;;16.90;99.90;;;;;;5070173;28;20559;-93
2022/05/27 07:39:22;;;;;;;2.67;1.80;;;16.90;99.90;;;;;;5075664;28;20226;-93
2022/05/27 07:41:49;;;;;;;3.43;2.00;;;16.90;99.90;;;;;;5059938;28;20316;-91
2022/05/27 07:44:19;;;;;;;3.40;1.50;;;17.10;99.90;;;;;;5056515;28;20217;-93
2022/05/27 07:46:46;;;;;;;3.27;1.93;;;17.10;99.90;;;;;;5056251;28;20249;-94
2022/05/27 07:49:18;;;;;;;3.83;1.90;;;17.20;99.90;;;;;;5067309;28;20207;-92
2022/05/27 07:51:51;;;;;;;3.70;1.57;;;17.20;99.90;;;;;;5067786;28;20583;-93
2022/05/27 07:57:49;;;;;;;5.20;1.50;;;17.20;99.90;;;;;;5057974;28;20204;-93
2022/05/27 08:00:20;;;;;;;2.13;1.80;;;17.20;99.90;;;;;;5071921;28;20254;-90
2022/05/27 08:02:53;;;;;;;2.13;1.60;;;17.20;99.90;;;;;;5081268;28;20219;-96
2022/05/27 08:05:53;;;;;;;4.13;1.90;;;17.10;99.90;;;;;;5081993;28;20221;-92
2022/05/27 08:09:27;;;;;;;2.00;1.53;;;17.10;99.90;;;;;;5067216;28;20222;-93
2022/05/27 08:18:32;;;;;;;3.77;1.43;;;17.40;99.90;;;;;;5074575;28;20204;-94
2022/05/27 08:21:00;;;;;;;3.40;1.57;;;17.40;99.90;;;;;;5077330;28;20636;-90
2022/05/27 08:23:29;;;;;;;4.00;1.77;;;17.40;99.90;;;;;;5076563;28;20208;-91
2022/05/27 08:26:03;;;;;;;4.07;1.80;;;17.50;99.90;;;;;;5068524;28;20229;-89
2022/05/27 08:28:31;;;;;;;2.70;1.63;;;17.40;99.90;;;;;;5057153;28;20250;-90
2022/05/27 08:30:59;;;;;;;4.03;1.93;;;17.50;99.90;;;;;;5060405;28;20202;-86
2022/05/27 08:38:00;;;;;;;2.77;1.50;;;17.60;99.90;;;;;;5054460;28;20294;-88
2022/05/27 08:39:08;;;;;;;4.40;1.83;;;17.70;99.90;;;;;;5054851;28;20194;-89
2022/05/27 08:42:03;;;;;;;3.73;1.60;;;17.60;99.90;;;;;;5055111;28;20202;-90
2022/05/27 08:44:44;;;;;;;3.00;1.57;;;17.80;99.90;;;;;;5054645;28;20278;-90
2022/05/27 08:47:21;;;;;;;2.13;1.63;;;17.90;99.90;;;;;;5074598;28;20313;-90
2022/05/27 08:50:05;;;;;;;5.33;1.90;;;18.00;99.90;;;;;;5070985;28;20248;-90
2022/05/27 08:52:47;;;;;;;5.43;1.60;;;18.10;99.90;;;;;;5055176;28;20230;-90
2022/05/27 09:01:25;;;;;;;1.73;1.57;;;18.30;99.90;;;;;;5031714;28;20194;-91
2022/05/27 09:04:00;;;;;;;4.32;1.60;;;18.00;99.90;;;;;;5054753;28;20445;-95
2022/05/27 09:06:37;;;;;;;1.80;1.20;;;18.00;99.90;;;;;;5057402;28;20237;-94
2022/05/27 09:09:08;;;;;;;2.17;1.57;;;18.00;99.90;;;;;;5071665;28;20196;-94
2022/05/27 09:11:48;;;;;;;3.23;1.27;;;18.00;99.90;;;;;;5088197;28;20217;-94
2022/05/27 09:14:20;;;;;;;1.70;1.60;;;18.10;99.90;;;;;;5078281;28;20237;-93
2022/05/27 09:16:55;;;;;;;2.70;1.40;;;18.10;99.90;;;;;;5075082;28;20677;-96
2022/05/27 09:19:27;;;;;;;4.00;1.90;;;18.20;99.90;;;;;;5057832;28;20214;-93
2022/05/27 09:22:13;;;;;;;2.13;1.13;;;18.20;99.90;;;;;;5083614;28;20195;-96
2022/05/27 09:27:16;;;;;;;3.07;1.40;;;18.50;99.90;;;;;;5032440;28;20232;-90
2022/05/27 09:29:55;;;;;;;3.13;1.75;;;18.50;99.90;;;;;;5032357;28;20438;-87
2022/05/27 09:32:32;;;;;;;3.60;1.50;;;18.70;99.90;;;;;;5034078;28;20245;-87
2022/05/27 09:35:04;;;;;;;3.83;1.73;;;18.60;99.90;;;;;;5033970;28;20227;-89
2022/05/27 09:37:37;;;;;;;3.47;1.77;;;18.60;99.90;;;;;;5033691;28;20232;-89
2022/05/27 09:40:10;;;;;;;3.63;1.80;;;18.30;99.90;;;;;;5033659;28;20222;-89
2022/05/27 09:42:43;;;;;;;4.57;1.70;;;18.40;99.90;;;;;;5033332;28;20215;-88
2022/05/27 09:45:11;;;;;;;6.13;1.87;;;18.50;99.90;;;;;;5033372;28;20211;-88
2022/05/27 09:47:40;;;;;;;5.57;2.13;;;18.20;99.90;;;;;;5033423;28;20230;-89
2022/05/27 09:50:19;;;;;;;6.63;2.37;;;18.00;99.90;;;;;;5033029;28;20329;-88
2022/05/27 09:52:48;;;;;;;6.23;3.10;;;17.90;99.90;;;;;;5032098;28;20211;-89
2022/05/27 09:55:22;;;;;;;6.33;2.43;;;17.80;99.90;;;;;;5030895;28;20207;-87
2022/05/27 09:57:58;;;;;;;4.30;2.20;;;18.00;99.90;;;;;;5032380;28;20224;-87
2022/05/27 10:00:38;;;;;;;7.30;2.47;;;18.00;99.90;;;;;;5033674;28;20230;-88
2022/05/27 10:03:28;;;;;;;4.13;2.10;;;18.30;99.90;;;;;;5033297;28;20276;-87
2022/05/27 10:05:58;;;;;;;3.87;1.80;;;18.40;99.90;;;;;;5015890;28;20216;-88
2022/05/27 10:08:38;;;;;;;6.47;2.20;;;18.30;99.90;;;;;;5033033;28;20236;-88
2022/05/27 10:11:15;;;;;;;5.07;1.87;;;18.20;99.90;;;;;;5033619;28;20221;-88
2022/05/27 10:13:42;;;;;;;6.90;2.57;;;18.30;99.90;;;;;;5036611;28;20212;-86
2022/05/27 10:16:11;;;;;;;5.63;1.93;;;18.40;99.90;;;;;;5037199;28;20284;-87
2022/05/27 10:18:39;;;;;;;5.27;2.00;;;18.70;99.90;;;;;;5037797;28;20446;-87
2022/05/27 10:21:13;;;;;;;5.07;2.20;;;19.00;99.90;;;;;;5022785;28;20217;-88
2022/05/27 10:23:43;;;;;;;4.33;1.93;;;19.00;99.90;;;;;;5036821;28;20219;-86
2022/05/27 10:26:22;;;;;;;8.57;2.47;;;19.00;99.90;;;;;;5042377;28;20244;-88
2022/05/27 10:29:02;;;;;;;7.90;1.93;;;18.60;99.90;;;;;;5038242;28;20239;-86
2022/05/27 10:31:30;;;;;;;4.10;1.77;;;18.30;99.90;;;;;;5037061;28;20766;-83
2022/05/27 10:34:00;;;;;;;4.77;2.30;;;18.30;99.90;;;;;;5037234;28;20220;-84
2022/05/27 10:36:47;;;;;;;4.37;2.00;;;18.40;99.90;;;;;;5037004;28;20382;-85
2022/05/27 10:39:21;;;;;;;2.90;1.70;;;18.70;99.90;;;;;;5037178;28;20220;-83
2022/05/27 10:42:06;;;;;;;5.30;1.95;;;18.60;99.90;;;;;;5036098;28;20441;-84
2022/05/27 10:44:45;;;;;;;6.23;2.00;;;18.60;99.90;;;;;;5035962;28;20210;-85
2022/05/27 10:47:20;;;;;;;5.77;1.93;;;18.70;99.90;;;;;;5035665;28;20696;-84
2022/05/27 10:50:05;;;;;;;7.47;2.20;;;18.50;99.90;;;;;;5036368;28;20226;-84
2022/05/27 10:52:46;;;;;;;5.13;2.13;;;18.40;99.90;;;;;;5035919;28;20667;-84
2022/05/27 10:55:20;;;;;;;9.73;2.03;;;18.40;99.90;;;;;;5035407;28;20522;-86
2022/05/27 11:04:06;;;;;;;3.23;2.00;;;18.60;99.90;;;;;;5035655;28;20210;-85
2022/05/27 11:06:47;;;;;;;4.10;1.60;;;18.70;99.90;;;;;;5035551;28;20202;-85
2022/05/27 11:09:25;;;;;;;8.83;1.97;;;18.90;99.90;;;;;;5035399;28;20226;-83
2022/05/27 11:12:03;;;;;;;3.73;2.07;;;19.00;99.90;;;;;;5035223;28;20307;-85
2022/05/27 11:17:33;;;;;;;9.03;2.10;;;19.40;99.90;;;;;;5035717;28;20209;-86
2022/05/27 11:20:35;;;;;;;3.97;1.80;;;19.20;99.90;;;;;;5035675;28;20562;-85
2022/05/27 11:23:16;;;;;;;6.70;2.23;;;19.20;99.90;;;;;;5035238;28;20210;-84
2022/05/27 11:25:56;;;;;;;7.80;3.07;;;19.20;99.90;;;;;;5034907;28;20715;-84
2022/05/27 11:29:06;;;;;;;8.80;4.00;;;19.00;99.90;;;;;;5035212;28;20265;-84
2022/05/27 11:31:45;;;;;;;12.45;4.80;;;19.00;99.90;;;;;;5034568;28;20449;-85
2022/05/27 11:34:22;;;;;;;14.07;4.57;;;18.60;99.90;;;;;;5035448;28;20191;-86
2022/05/27 11:37:06;;;;;;;10.30;3.70;;;18.20;99.90;;;;;;5035480;28;20208;-85
2022/05/27 11:39:57;;;;;;;9.27;3.60;;;18.10;99.90;;;;;;5034958;28;20201;-85
2022/05/27 11:42:48;;;;;;;9.13;3.70;;;18.20;99.90;;;;;;5035106;28;20210;-84
2022/05/27 11:45:21;;;;;;;7.87;3.17;;;18.40;99.90;;;;;;5034644;28;20638;-83
2022/05/27 11:48:06;;;;;;;8.90;3.27;;;18.50;99.90;;;;;;5034797;28;20218;-84
2022/05/27 11:51:05;;;;;;;11.17;3.10;;;18.60;99.90;;;;;;5034624;28;20205;-85
2022/05/27 11:54:09;;;;;;;9.63;3.17;;;18.80;99.90;;;;;;5034528;28;20202;-84
2022/05/27 11:56:48;;;;;;;10.97;3.87;;;19.00;99.90;;;;;;5034859;28;20656;-85
2022/05/27 11:59:22;;;;;;;11.03;3.77;;;18.90;99.90;;;;;;5034423;28;20210;-84
2022/05/27 12:01:55;;;;;;;7.93;3.00;;;18.60;99.90;;;;;;5034282;28;20640;-84
2022/05/27 12:04:32;;;;;;;8.13;3.40;;;18.60;99.90;;;;;;5034624;28;20205;-84
2022/05/27 12:07:14;;;;;;;8.17;2.90;;;18.80;99.90;;;;;;5034799;28;20210;-85
2022/05/27 12:09:48;;;;;;;9.90;3.53;;;18.50;99.90;;;;;;5033686;28;20193;-87
2022/05/27 12:12:21;;;;;;;7.90;3.17;;;18.30;99.90;;;;;;5033927;28;20206;-87
2022/05/27 12:14:55;;;;;;;8.57;3.13;;;18.40;99.90;;;;;;5017739;28;20212;-89
2022/05/27 12:17:36;;;;;;;4.93;2.47;;;18.60;99.90;;;;;;5034667;28;20211;-92
2022/05/27 12:20:03;;;;;;;9.53;3.23;;;18.50;99.90;;;;;;5034729;28;20212;-92
2022/05/27 12:22:33;;;;;;;9.43;3.17;;;18.70;99.90;;;;;;5030348;28;20222;-91
2022/05/27 12:25:04;;;;;;;6.93;2.90;;;18.60;99.90;;;;;;5034534;28;20221;-90
2022/05/27 12:27:33;;;;;;;4.53;2.40;;;18.40;99.90;;;;;;5034596;28;20236;-91
2022/05/27 12:30:00;;;;;;;4.00;2.50;;;18.40;99.90;;;;;;5034135;28;20200;-90
2022/05/27 12:32:30;;;;;;;5.50;2.47;;;18.40;99.90;;;;;;5035094;28;20201;-90
2022/05/27 12:35:19;;;;;;;9.87;2.87;;;18.60;99.90;;;;;;5035051;28;20204;-90
2022/05/27 12:37:49;;;;;;;7.17;2.30;;;18.70;99.90;;;;;;5035951;28;20204;-90
2022/05/27 12:40:33;;;;;;;7.30;2.47;;;18.70;99.90;;;;;;5034968;28;20219;-88
2022/05/27 12:43:11;;;;;;;5.67;2.37;;;18.90;99.90;;;;;;5035037;28;20217;-90
2022/05/27 12:45:49;;;;;;;6.70;2.80;;;18.90;99.90;;;;;;5041851;28;20430;-89
2022/05/27 12:48:38;;;;;;;7.77;2.40;;;18.70;99.90;;;;;;5034934;28;20242;-89
2022/05/27 12:51:08;;;;;;;6.67;2.60;;;18.70;99.90;;;;;;5016670;28;20267;-89
2022/05/27 12:53:46;;;;;;;4.17;2.40;;;18.80;99.90;;;;;;5016860;28;20256;-90
2022/05/27 13:02:48;;;;;;;5.67;2.77;;;18.70;99.90;;;;;;5034419;28;20245;-93
2022/05/27 13:05:19;;;;;;;7.10;2.17;;;18.60;99.90;;;;;;5016432;28;20209;-87
2022/05/27 13:07:50;;;;;;;7.23;2.47;;;18.70;99.90;;;;;;5033744;28;20315;-91
2022/05/27 13:10:44;;;;;;;7.63;2.70;;;18.90;99.90;;;;;;5034059;28;20196;-91
2022/05/27 13:13:14;;;;;;;10.37;2.60;;;18.90;99.90;;;;;;5034651;28;20197;-89
2022/05/27 13:15:48;;;;;;;8.97;2.90;;;18.60;99.90;;;;;;5034182;28;20580;-91
2022/05/27 13:18:27;;;;;;;8.30;3.00;;;18.70;99.90;;;;;;5041226;28;20208;-89
2022/05/27 13:21:02;;;;;;;6.57;2.60;;;19.00;99.90;;;;;;5034525;28;20207;-89
2022/05/27 13:23:31;;;;;;;7.17;2.53;;;19.30;99.90;;;;;;5034248;28;20207;-88
2022/05/27 13:26:07;;;;;;;6.10;2.43;;;19.50;99.90;;;;;;5033756;28;20687;-89
2022/05/27 13:28:38;;;;;;;8.80;2.70;;;19.70;99.90;;;;;;5033963;28;20251;-88
2022/05/27 13:31:10;;;;;;;8.83;2.73;;;19.70;99.90;;;;;;5034129;28;20199;-87
2022/05/27 13:33:41;;;;;;;9.10;2.80;;;20.00;99.90;;;;;;5034059;28;20203;-91
2022/05/27 13:36:21;;;;;;;7.40;2.77;;;19.80;99.90;;;;;;5033747;28;20237;-89
2022/05/27 13:38:55;;;;;;;6.77;2.27;;;20.30;99.90;;;;;;5033958;28;20201;-88
2022/05/27 13:41:23;;;;;;;9.13;2.73;;;20.40;99.90;;;;;;5034108;28;20232;-87
2022/05/27 13:43:53;;;;;;;5.33;2.37;;;20.20;99.90;;;;;;5033748;28;20210;-88
2022/05/27 13:46:26;;;;;;;6.17;3.20;;;20.30;99.90;;;;;;5016087;28;20735;-87
2022/05/27 13:48:58;;;;;;;10.60;2.93;;;20.40;99.90;;;;;;5037684;28;20235;-88
2022/05/27 13:51:28;;;;;;;7.60;2.37;;;20.60;99.90;;;;;;5037298;28;20207;-87
2022/05/27 13:53:55;;;;;;;7.50;2.20;;;20.50;99.90;;;;;;5038037;28;20607;-88
2022/05/27 13:56:25;;;;;;;5.70;2.13;;;20.60;99.90;;;;;;5037551;28;20292;-88
2022/05/27 13:58:56;;;;;;;7.00;2.65;;;20.70;99.90;;;;;;5022569;28;20423;-89
2022/05/27 14:01:29;;;;;;;7.37;2.87;;;20.60;99.90;;;;;;5039832;28;20207;-88
2022/05/27 14:04:11;;;;;;;8.27;2.27;;;20.90;99.90;;;;;;5019718;28;20230;-88
2022/05/27 14:06:41;;;;;;;7.20;2.93;;;20.40;99.90;;;;;;5037587;28;20255;-87
2022/05/27 14:09:15;;;;;;;6.40;2.37;;;20.00;99.90;;;;;;5038181;28;20243;-88
2022/05/27 14:11:49;;;;;;;7.53;2.80;;;20.40;99.90;;;;;;5037509;28;20698;-88
2022/05/27 14:14:16;;;;;;;5.37;2.50;;;20.80;99.90;;;;;;5037508;28;20300;-89
2022/05/27 14:16:44;;;;;;;6.17;2.43;;;21.00;99.90;;;;;;5019286;28;20260;-85
2022/05/27 14:19:18;;;;;;;6.73;2.67;;;20.60;99.90;;;;;;5036029;28;20671;-86
2022/05/27 14:24:34;;;;;;;8.30;2.70;;;21.10;99.90;;;;;;5036901;28;20209;-88
2022/05/27 14:27:02;;;;;;;7.57;2.70;;;21.20;99.90;;;;;;5035060;28;20307;-86
2022/05/27 14:29:29;;;;;;;10.87;3.10;;;20.90;99.90;;;;;;5042394;28;20279;-88
2022/05/27 14:32:06;;;;;;;6.60;2.90;;;20.50;99.90;;;;;;5036849;28;20214;-86
2022/05/27 14:34:33;;;;;;;9.83;3.07;;;20.40;99.90;;;;;;5036234;28;20226;-85
2022/05/27 14:37:12;;;;;;;8.90;2.60;;;20.60;99.90;;;;;;5035991;28;20561;-85
2022/05/27 14:39:40;;;;;;;8.33;2.80;;;20.20;99.90;;;;;;5036163;28;20560;-86